CheckWX is a tool to help pilots better visualize weather data.  It is not intended as a substitute for an official pre-flight weather briefing.

12:19:45 UTC

EGCK METAR
Caernarfon Airport
Caernarfon, United Kingdom
Current

30 mins ago

EGCK 221150Z 16015G25KT 120V180 CAVOK 15/06 Q1031
Observed
Feb-22 @ 11:50 UTC
Wind
  • 160° at 15 KTS
  • Gusting to KTS
Visibility
10,000+ meters
Flight Rules
VFR
Cloud Levels
  • Clear skies
Temperature
15°C / 59°F
Dewpoint
C / 43°F
Humidity
55%
Altimeter
30.44" Hg
Pressure
1030.91 hPa
Previous

60 mins ago

EGCK 221120Z 16015G25KT 110V180 CAVOK 15/06 Q1031
Observed
Feb-22 @ 11:20 UTC
Wind
  • 160° at 15 KTS
  • Gusting to KTS
Visibility
10,000+ meters
Flight Rules
VFR
Cloud Levels
  • Clear skies
Temperature
15°C / 59°F
Dewpoint
C / 43°F
Humidity
55%
Altimeter
30.44" Hg
Pressure
1030.91 hPa
Previous

1 hour ago

EGCK 221050Z 16016G26KT 120V180 CAVOK 15/06 Q1031
Observed
Feb-22 @ 10:50 UTC
Wind
  • 160° at 16 KTS
  • Gusting to KTS
Visibility
10,000+ meters
Flight Rules
VFR
Cloud Levels
  • Clear skies
Temperature
15°C / 59°F
Dewpoint
C / 43°F
Humidity
55%
Altimeter
30.44" Hg
Pressure
1030.91 hPa